createdAt,value
2022-11-29T00:01:15.194Z,13.15
2022-11-29T00:03:42.572Z,12.83
2022-11-29T00:06:15.058Z,12.38
2022-11-29T00:08:42.670Z,12.57
2022-11-29T00:11:14.587Z,12.13
2022-11-29T00:13:41.804Z,11.15
2022-11-29T00:16:10.153Z,10.23
2022-11-29T00:18:37.552Z,12.60
2022-11-29T00:21:06.366Z,13.80
2022-11-29T00:23:33.918Z,12.63
2022-11-29T00:26:05.410Z,12.52
2022-11-29T00:28:32.933Z,12.33
2022-11-29T00:31:00.427Z,13.13
2022-11-29T00:33:27.877Z,12.43
2022-11-29T00:35:55.119Z,12.98
2022-11-29T00:38:22.392Z,14.77
2022-11-29T00:40:52.975Z,13.10
2022-11-29T00:43:20.326Z,13.77
2022-11-29T00:45:47.547Z,13.27
2022-11-29T00:48:14.875Z,12.32
2022-11-29T00:50:42.254Z,13.00
2022-11-29T00:53:09.682Z,14.07
2022-11-29T00:55:36.950Z,12.27
2022-11-29T00:58:04.308Z,13.30
2022-11-29T01:00:31.535Z,12.52
2022-11-29T01:02:58.790Z,12.65
2022-11-29T01:05:26.007Z,14.20
2022-11-29T01:07:53.346Z,14.23
2022-11-29T01:10:20.788Z,13.15
2022-11-29T01:12:48.084Z,13.52
2022-11-29T01:15:15.327Z,13.68
2022-11-29T01:17:42.826Z,12.03
2022-11-29T01:20:11.452Z,13.68
2022-11-29T01:22:38.916Z,13.77
2022-11-29T01:25:07.422Z,13.23
2022-11-29T01:27:34.888Z,14.63
2022-11-29T01:30:02.143Z,12.10
2022-11-29T01:32:29.420Z,14.00
2022-11-29T01:34:56.621Z,13.25
2022-11-29T01:37:24.041Z,14.23
2022-11-29T01:39:51.247Z,13.02
2022-11-29T01:42:18.803Z,13.33
2022-11-29T01:44:46.270Z,13.93
2022-11-29T01:47:13.880Z,13.95
2022-11-29T01:49:42.805Z,14.15
2022-11-29T01:52:19.446Z,12.77
2022-11-29T01:54:48.595Z,14.50
2022-11-29T01:57:15.819Z,12.60
2022-11-29T01:59:44.787Z,14.90
2022-11-29T02:02:39.454Z,13.60
2022-11-29T02:05:07.399Z,13.40
2022-11-29T02:07:34.772Z,13.33
2022-11-29T02:10:02.325Z,13.63
2022-11-29T02:12:38.013Z,14.52
2022-11-29T02:15:36.356Z,13.60
2022-11-29T02:18:07.103Z,12.98
2022-11-29T02:20:46.516Z,13.10
2022-11-29T02:23:51.332Z,12.82
2022-11-29T02:27:00.245Z,12.82
2022-11-29T02:30:05.098Z,12.50
2022-11-29T02:32:41.096Z,12.10
2022-11-29T02:35:42.117Z,13.23
2022-11-29T02:38:18.313Z,12.02
2022-11-29T02:41:09.974Z,12.43
2022-11-29T02:44:06.524Z,12.70
2022-11-29T02:46:39.529Z,12.95
2022-11-29T02:49:24.929Z,13.37
2022-11-29T02:52:59.739Z,12.77
2022-11-29T02:56:04.821Z,13.45
2022-11-29T02:59:19.846Z,14.02
2022-11-29T03:02:05.641Z,13.20
2022-11-29T03:04:58.467Z,12.67
2022-11-29T03:07:35.952Z,12.75
2022-11-29T03:10:18.475Z,13.48
2022-11-29T03:12:47.775Z,13.40
2022-11-29T03:15:31.818Z,14.07
2022-11-29T03:18:20.440Z,13.57
2022-11-29T03:21:06.167Z,14.15
2022-11-29T03:23:57.531Z,15.48
2022-11-29T03:26:30.242Z,13.95
2022-11-29T03:29:10.401Z,14.55
2022-11-29T03:31:39.139Z,15.53
2022-11-29T03:34:18.505Z,14.85
2022-11-29T03:37:02.629Z,14.77
2022-11-29T03:39:45.054Z,13.05
2022-11-29T03:42:19.837Z,14.75
2022-11-29T03:44:51.419Z,15.20
2022-11-29T03:47:22.253Z,14.15
2022-11-29T03:50:16.855Z,13.85
2022-11-29T03:53:13.158Z,14.38
2022-11-29T03:55:54.982Z,13.63
2022-11-29T03:58:53.091Z,16.20
2022-11-29T04:01:38.876Z,13.10
2022-11-29T04:04:24.976Z,13.70
2022-11-29T04:07:00.884Z,14.82
2022-11-29T04:09:39.327Z,14.20
2022-11-29T04:12:18.793Z,14.47
2022-11-29T04:15:01.048Z,13.98
2022-11-29T04:17:31.160Z,13.55
2022-11-29T04:20:21.686Z,14.93
2022-11-29T04:23:07.094Z,13.80
2022-11-29T04:25:34.427Z,14.33
2022-11-29T04:28:40.696Z,15.82
2022-11-29T04:31:55.982Z,15.40
2022-11-29T04:34:35.302Z,14.70
2022-11-29T04:37:08.491Z,17.20
2022-11-29T04:39:58.309Z,14.10
2022-11-29T04:42:37.727Z,14.05
2022-11-29T04:45:13.799Z,14.32
2022-11-29T04:48:02.756Z,14.98
2022-11-29T04:50:48.884Z,15.80
2022-11-29T04:53:28.638Z,13.60
2022-11-29T04:56:33.413Z,15.57
2022-11-29T04:59:20.882Z,14.55
2022-11-29T05:02:10.048Z,14.73
2022-11-29T05:05:31.163Z,14.50
2022-11-29T05:08:31.980Z,14.67
2022-11-29T05:11:27.551Z,13.65
2022-11-29T05:14:28.797Z,13.75
2022-11-29T05:17:20.600Z,14.57
2022-11-29T05:20:15.711Z,14.23
2022-11-29T05:23:16.359Z,13.93
2022-11-29T05:26:03.882Z,13.15
2022-11-29T05:29:03.662Z,14.55
2022-11-29T05:31:52.449Z,12.25
2022-11-29T05:34:34.855Z,15.18
2022-11-29T05:37:11.988Z,15.17
2022-11-29T05:40:08.642Z,14.52
2022-11-29T05:42:39.120Z,16.27
2022-11-29T05:45:24.806Z,15.70
2022-11-29T05:48:05.327Z,13.70
2022-11-29T05:50:51.122Z,14.73
2022-11-29T05:53:22.482Z,15.10
2022-11-29T05:56:04.592Z,14.57
2022-11-29T05:58:43.670Z,14.82
2022-11-29T06:01:31.798Z,14.93
2022-11-29T06:04:00.502Z,14.93
2022-11-29T06:06:34.743Z,15.27
2022-11-29T06:09:06.484Z,15.98
2022-11-29T06:11:44.775Z,15.00
2022-11-29T06:14:47.588Z,16.02
2022-11-29T06:17:34.254Z,16.30
2022-11-29T06:20:30.129Z,16.33
2022-11-29T06:23:19.335Z,15.40
2022-11-29T06:26:07.537Z,16.23
2022-11-29T06:29:01.882Z,15.23
2022-11-29T06:31:38.824Z,15.97
2022-11-29T06:34:15.403Z,15.48
2022-11-29T06:36:48.287Z,14.70
2022-11-29T06:39:15.900Z,16.05
2022-11-29T06:41:43.289Z,15.35
2022-11-29T06:44:11.172Z,16.37
2022-11-29T06:46:55.553Z,16.60
2022-11-29T06:49:27.255Z,16.08
2022-11-29T06:52:25.615Z,15.13
2022-11-29T06:55:01.466Z,16.80
2022-11-29T06:57:39.652Z,15.13
2022-11-29T07:00:24.119Z,15.82
2022-11-29T07:03:13.250Z,16.08
2022-11-29T07:05:42.857Z,14.60
2022-11-29T07:08:16.011Z,14.50
2022-11-29T07:10:43.989Z,14.43
2022-11-29T07:13:13.809Z,15.27
2022-11-29T07:16:25.453Z,14.07
2022-11-29T07:19:14.685Z,13.65
2022-11-29T07:22:00.283Z,14.15
2022-11-29T07:25:02.713Z,12.70
2022-11-29T07:27:35.421Z,13.77
2022-11-29T07:30:19.972Z,13.95
2022-11-29T07:32:58.719Z,13.95
2022-11-29T07:35:52.470Z,15.27
2022-11-29T07:38:31.760Z,14.43
2022-11-29T07:41:07.623Z,15.02
2022-11-29T07:44:13.206Z,13.40
2022-11-29T07:46:40.616Z,16.02
2022-11-29T07:49:10.428Z,11.02
2022-11-29T07:51:37.953Z,14.33
2022-11-29T07:54:05.896Z,14.50
2022-11-29T07:56:33.239Z,14.60
2022-11-29T07:59:00.554Z,14.65
2022-11-29T08:01:28.925Z,13.40
2022-11-29T08:03:56.330Z,14.73
2022-11-29T08:06:25.597Z,13.77
2022-11-29T08:08:53.941Z,14.70
2022-11-29T08:11:22.289Z,16.02
2022-11-29T08:13:50.303Z,13.88
2022-11-29T08:16:18.438Z,13.73
2022-11-29T08:18:46.121Z,14.73
2022-11-29T08:21:18.125Z,13.80
2022-11-29T08:23:49.375Z,9.25
2022-11-29T08:26:17.675Z,14.20
2022-11-29T08:28:45.034Z,13.67
2022-11-29T08:31:13.097Z,13.13
2022-11-29T08:33:41.703Z,13.45
2022-11-29T08:36:14.740Z,12.02
2022-11-29T08:38:42.343Z,10.55
2022-11-29T08:41:14.268Z,12.57
2022-11-29T08:43:42.212Z,13.52
2022-11-29T08:46:18.315Z,13.38
2022-11-29T08:48:49.638Z,13.05
2022-11-29T08:51:17.224Z,10.68
2022-11-29T08:53:46.603Z,11.33
2022-11-29T08:57:10.028Z,9.73
2022-11-29T08:59:08.893Z,11.05
2022-11-29T09:01:36.558Z,9.63
2022-11-29T09:04:06.047Z,12.43
2022-11-29T09:06:37.744Z,11.67
2022-11-29T09:09:05.610Z,12.63
2022-11-29T09:11:34.068Z,9.27
2022-11-29T09:14:03.258Z,9.40
2022-11-29T09:16:33.234Z,12.35
2022-11-29T09:19:01.105Z,10.27
2022-11-29T09:21:30.431Z,12.60
2022-11-29T09:24:00.173Z,13.43
2022-11-29T09:26:31.175Z,11.90
2022-11-29T09:29:01.505Z,9.35
2022-11-29T09:31:30.728Z,12.13
2022-11-29T09:33:59.226Z,11.55
2022-11-29T09:36:30.166Z,12.10
2022-11-29T09:38:58.513Z,10.98
2022-11-29T09:42:03.401Z,12.55
2022-11-29T09:44:54.865Z,11.60
2022-11-29T09:47:35.383Z,12.70
2022-11-29T09:50:20.563Z,11.93
2022-11-29T09:52:47.902Z,11.05
2022-11-29T09:55:48.015Z,11.98
2022-11-29T09:58:21.256Z,11.50
2022-11-29T10:00:51.024Z,12.40
2022-11-29T10:03:31.876Z,12.20
2022-11-29T10:06:05.633Z,11.82
2022-11-29T10:08:45.662Z,11.98
2022-11-29T10:11:20.566Z,13.30
2022-11-29T10:13:53.757Z,12.32
2022-11-29T10:16:31.899Z,12.35
2022-11-29T10:19:04.324Z,12.05
2022-11-29T10:21:37.055Z,12.63
2022-11-29T10:24:07.304Z,12.33
2022-11-29T10:26:35.536Z,13.00
2022-11-29T10:29:03.192Z,14.18
2022-11-29T10:31:36.276Z,12.38
2022-11-29T10:34:11.877Z,13.25
2022-11-29T10:36:44.826Z,12.67
2022-11-29T10:39:39.785Z,13.25
2022-11-29T10:42:29.986Z,13.75
2022-11-29T10:44:57.716Z,12.95
2022-11-29T10:47:26.963Z,13.25
2022-11-29T10:49:55.477Z,13.00
2022-11-29T10:52:23.065Z,12.95
2022-11-29T10:54:51.513Z,13.25
2022-11-29T10:57:23.004Z,12.68
2022-11-29T11:00:20.553Z,11.63
2022-11-29T11:02:48.014Z,9.77
2022-11-29T11:05:19.210Z,10.25
2022-11-29T11:07:48.296Z,11.98
2022-11-29T11:10:29.383Z,10.90
2022-11-29T11:13:17.009Z,11.35
2022-11-29T11:15:44.575Z,11.43
2022-11-29T11:18:25.314Z,9.63
2022-11-29T11:20:54.020Z,10.80
2022-11-29T11:23:25.937Z,9.85
2022-11-29T11:26:12.953Z,12.15
2022-11-29T11:29:02.299Z,11.07
2022-11-29T11:31:34.992Z,10.20
2022-11-29T11:34:31.654Z,10.68
2022-11-29T11:37:32.010Z,11.25
2022-11-29T11:40:01.456Z,11.15
2022-11-29T11:42:37.305Z,10.80
2022-11-29T11:45:11.801Z,12.45
2022-11-29T11:47:48.149Z,12.02
2022-11-29T11:50:43.584Z,8.90
2022-11-29T11:53:37.746Z,10.38
2022-11-29T11:56:07.108Z,13.13
2022-11-29T11:58:43.783Z,12.00
2022-11-29T12:01:31.060Z,11.32
2022-11-29T12:04:03.253Z,10.77
2022-11-29T12:06:59.161Z,10.52
2022-11-29T12:09:41.085Z,10.80
2022-11-29T12:12:08.831Z,11.52
2022-11-29T12:14:54.913Z,10.70
2022-11-29T12:17:35.760Z,10.80
2022-11-29T12:20:21.878Z,9.95
2022-11-29T12:23:12.825Z,10.27
2022-11-29T12:25:51.060Z,9.77
2022-11-29T12:28:20.841Z,12.40
2022-11-29T12:31:08.735Z,10.48
2022-11-29T12:33:41.936Z,10.23
2022-11-29T12:36:39.474Z,10.43
2022-11-29T12:39:37.655Z,11.13
2022-11-29T12:42:18.250Z,9.80
2022-11-29T12:44:51.716Z,11.95
2022-11-29T12:47:50.356Z,10.18
2022-11-29T12:50:22.294Z,11.97
2022-11-29T12:53:51.655Z,10.02
2022-11-29T12:56:32.410Z,9.23
2022-11-29T12:59:20.341Z,10.18
2022-11-29T13:02:04.445Z,10.45
2022-11-29T13:04:36.696Z,10.23
2022-11-29T13:07:34.394Z,9.98
2022-11-29T13:10:23.479Z,10.63
2022-11-29T13:13:05.279Z,10.43
2022-11-29T13:15:43.426Z,10.70
2022-11-29T13:18:53.738Z,10.43
2022-11-29T13:21:27.111Z,9.90
2022-11-29T13:24:08.884Z,11.10
2022-11-29T13:26:42.555Z,10.00
2022-11-29T13:29:16.815Z,10.00
2022-11-29T13:31:46.184Z,9.73
2022-11-29T13:34:31.253Z,10.30
2022-11-29T13:37:35.268Z,11.13
2022-11-29T13:40:17.717Z,10.10
2022-11-29T13:43:01.557Z,9.80
2022-11-29T13:45:34.676Z,9.50
2022-11-29T13:48:02.424Z,10.73
2022-11-29T13:50:36.220Z,9.55
2022-11-29T13:53:24.637Z,10.98
2022-11-29T13:56:01.307Z,10.55
2022-11-29T13:58:28.795Z,10.93
2022-11-29T14:01:02.179Z,11.32
2022-11-29T14:03:31.950Z,11.38
2022-11-29T14:06:02.242Z,10.85
2022-11-29T14:09:01.999Z,10.98
2022-11-29T14:11:28.731Z,11.20
2022-11-29T14:14:09.148Z,11.18
2022-11-29T14:16:45.361Z,11.82
2022-11-29T14:19:30.062Z,10.85
2022-11-29T14:22:03.128Z,11.48
2022-11-29T14:24:36.204Z,12.17
2022-11-29T14:27:07.300Z,11.38
2022-11-29T14:29:49.665Z,12.05
2022-11-29T14:32:46.533Z,11.45
2022-11-29T14:35:17.155Z,11.57
2022-11-29T14:37:55.943Z,12.90
2022-11-29T14:40:35.420Z,11.30
2022-11-29T14:43:02.990Z,10.70
2022-11-29T14:45:32.136Z,10.68
2022-11-29T14:47:59.513Z,11.68
2022-11-29T14:50:37.494Z,10.63
2022-11-29T14:53:28.752Z,10.52
2022-11-29T14:56:31.144Z,10.32
2022-11-29T14:59:35.868Z,11.15
2022-11-29T15:02:07.078Z,11.90
2022-11-29T15:04:35.044Z,11.80
2022-11-29T15:07:02.299Z,10.43
2022-11-29T15:09:29.644Z,11.30
2022-11-29T15:11:58.901Z,11.18
2022-11-29T15:14:36.780Z,10.95
2022-11-29T15:17:15.955Z,12.43
2022-11-29T15:20:01.877Z,11.32
2022-11-29T15:22:36.873Z,12.23
2022-11-29T15:25:14.285Z,10.95
2022-11-29T15:28:17.424Z,11.38
2022-11-29T15:30:44.839Z,11.87
2022-11-29T15:33:22.984Z,12.02
2022-11-29T15:36:03.961Z,12.93
2022-11-29T15:38:43.157Z,12.95
2022-11-29T15:41:28.541Z,13.50
2022-11-29T15:44:03.767Z,12.30
2022-11-29T15:46:33.052Z,13.52
2022-11-29T15:49:22.035Z,13.15
2022-11-29T15:51:51.593Z,13.07
2022-11-29T15:54:36.791Z,12.45
2022-11-29T15:57:09.343Z,12.80
2022-11-29T15:59:37.701Z,13.52
2022-11-29T16:02:15.906Z,12.63
2022-11-29T16:04:46.779Z,13.85
2022-11-29T16:07:14.967Z,13.95
2022-11-29T16:09:50.309Z,12.87
2022-11-29T16:12:17.834Z,14.32
2022-11-29T16:15:03.713Z,12.80
2022-11-29T16:17:31.808Z,13.32
2022-11-29T16:20:18.833Z,13.75
2022-11-29T16:22:46.238Z,13.20
2022-11-29T16:25:19.078Z,12.85
2022-11-29T16:27:46.475Z,14.07
2022-11-29T16:30:24.443Z,12.98
2022-11-29T16:32:56.879Z,13.50
2022-11-29T16:35:33.228Z,13.93
2022-11-29T16:38:03.531Z,12.50
2022-11-29T16:40:32.173Z,12.32
2022-11-29T16:43:18.627Z,11.98
2022-11-29T16:45:47.021Z,11.25
2022-11-29T16:48:23.302Z,11.10
2022-11-29T16:51:09.603Z,13.07
2022-11-29T16:53:37.550Z,13.63
2022-11-29T16:56:05.487Z,11.73
2022-11-29T16:58:33.524Z,14.35
2022-11-29T17:01:29.647Z,12.00
2022-11-29T17:03:57.993Z,14.80
2022-11-29T17:06:25.299Z,12.27
2022-11-29T17:08:53.464Z,11.85
2022-11-29T17:11:20.763Z,11.45
2022-11-29T17:13:48.908Z,12.87
2022-11-29T17:16:17.804Z,12.73
2022-11-29T17:18:45.412Z,11.57
2022-11-29T17:21:18.393Z,11.43
2022-11-29T17:23:46.052Z,13.40
2022-11-29T17:26:13.315Z,14.03
2022-11-29T17:28:40.768Z,13.48
2022-11-29T17:31:12.011Z,12.60
2022-11-29T17:33:39.484Z,13.82
2022-11-29T17:36:11.296Z,14.32
2022-11-29T17:38:38.588Z,14.23
2022-11-29T17:41:10.075Z,15.57
2022-11-29T17:43:37.423Z,15.70
2022-11-29T17:46:12.115Z,14.57
2022-11-29T17:48:39.656Z,15.55
2022-11-29T17:51:22.850Z,14.43
2022-11-29T17:53:55.463Z,14.68
2022-11-29T17:56:24.784Z,15.00
2022-11-29T17:58:55.826Z,16.10
2022-11-29T18:01:24.780Z,16.85
2022-11-29T18:03:54.164Z,15.30
2022-11-29T18:06:23.153Z,17.27
2022-11-29T18:08:56.242Z,16.70
2022-11-29T18:11:35.330Z,14.90
2022-11-29T18:14:10.428Z,15.30
2022-11-29T18:16:37.865Z,14.10
2022-11-29T18:19:07.003Z,18.75
2022-11-29T18:21:37.023Z,16.75
2022-11-29T18:24:05.357Z,16.20
2022-11-29T18:26:33.223Z,16.63
2022-11-29T18:29:00.666Z,15.00
2022-11-29T18:31:32.828Z,14.85
2022-11-29T18:34:01.315Z,14.68
2022-11-29T18:36:30.519Z,14.13
2022-11-29T18:39:02.573Z,14.52
2022-11-29T18:41:30.255Z,13.23
2022-11-29T18:43:59.278Z,14.40
2022-11-29T18:46:27.621Z,14.23
2022-11-29T18:48:54.996Z,14.80
2022-11-29T18:51:22.311Z,12.32
2022-11-29T18:53:49.578Z,14.83
2022-11-29T18:56:18.641Z,14.32
2022-11-29T18:58:47.341Z,13.93
2022-11-29T19:01:15.994Z,12.35
2022-11-29T19:03:45.596Z,13.95
2022-11-29T19:06:15.400Z,12.60
2022-11-29T19:08:42.925Z,13.32
2022-11-29T19:11:11.783Z,14.38
2022-11-29T19:13:39.291Z,14.25
2022-11-29T19:16:13.079Z,13.50
2022-11-29T19:18:40.520Z,13.80
2022-11-29T19:21:12.397Z,12.57
2022-11-29T19:23:39.942Z,13.80
2022-11-29T19:26:14.361Z,12.25
2022-11-29T19:28:42.998Z,15.32
2022-11-29T19:31:11.103Z,14.33
2022-11-29T19:33:39.196Z,15.45
2022-11-29T19:36:07.890Z,13.48
2022-11-29T19:38:35.720Z,14.00
2022-11-29T19:41:22.476Z,15.27
2022-11-29T19:43:49.854Z,14.33
2022-11-29T19:46:21.777Z,15.82
2022-11-29T19:48:49.355Z,15.50
2022-11-29T19:51:19.530Z,15.23
2022-11-29T19:53:47.056Z,16.25
2022-11-29T19:56:15.868Z,15.77
2022-11-29T19:58:43.731Z,14.63
2022-11-29T20:01:16.690Z,14.30
2022-11-29T20:03:45.105Z,14.27
2022-11-29T20:06:13.635Z,14.57
2022-11-29T20:08:41.157Z,15.27
2022-11-29T20:11:19.410Z,15.80
2022-11-29T20:13:48.023Z,15.27
2022-11-29T20:16:16.018Z,16.73
2022-11-29T20:18:48.929Z,15.43
2022-11-29T20:21:25.684Z,16.07
2022-11-29T20:24:00.150Z,15.77
2022-11-29T20:26:27.903Z,16.58
2022-11-29T20:28:55.163Z,16.23
2022-11-29T20:31:23.240Z,15.60
2022-11-29T20:33:52.029Z,15.83
2022-11-29T20:36:43.247Z,17.05
2022-11-29T20:39:38.903Z,14.82
2022-11-29T20:42:41.535Z,13.38
2022-11-29T20:45:12.291Z,15.27
2022-11-29T20:48:13.162Z,15.80
2022-11-29T20:50:40.570Z,15.05
2022-11-29T20:53:07.769Z,15.15
2022-11-29T20:55:42.444Z,16.10
2022-11-29T20:58:13.761Z,15.32
2022-11-29T21:00:40.999Z,15.83
2022-11-29T21:03:08.272Z,15.68
2022-11-29T21:05:37.965Z,15.68
2022-11-29T21:08:05.386Z,14.90
2022-11-29T21:10:32.666Z,16.30
2022-11-29T21:13:00.436Z,15.70
2022-11-29T21:15:28.106Z,15.52
2022-11-29T21:17:55.726Z,16.60
2022-11-29T21:20:24.637Z,16.25
2022-11-29T21:22:55.039Z,16.52
2022-11-29T21:25:53.662Z,14.57
2022-11-29T21:28:20.957Z,14.68
2022-11-29T21:30:48.512Z,15.73
2022-11-29T21:33:15.969Z,15.95
2022-11-29T21:35:43.256Z,14.60
2022-11-29T21:38:14.913Z,16.00
2022-11-29T21:40:42.355Z,16.42
2022-11-29T21:43:09.587Z,16.67
2022-11-29T21:45:36.879Z,15.82
2022-11-29T21:48:04.307Z,15.20
2022-11-29T21:50:31.565Z,15.63
2022-11-29T21:52:58.741Z,15.40
2022-11-29T21:55:31.748Z,17.65
2022-11-29T21:57:59.578Z,16.05
2022-11-29T22:00:26.872Z,17.30
2022-11-29T22:02:58.982Z,15.97
2022-11-29T22:05:26.233Z,16.30
2022-11-29T22:07:56.456Z,16.55
2022-11-29T22:10:23.815Z,17.25
2022-11-29T22:12:52.606Z,16.80
2022-11-29T22:15:24.508Z,17.03
2022-11-29T22:17:53.483Z,16.25
2022-11-29T22:20:20.825Z,16.48
2022-11-29T22:22:48.724Z,16.02
2022-11-29T22:25:16.085Z,17.45
2022-11-29T22:27:43.423Z,16.60
2022-11-29T22:30:11.079Z,15.57
2022-11-29T22:32:38.422Z,17.00
2022-11-29T22:35:07.157Z,17.48
2022-11-29T22:37:34.460Z,16.55
2022-11-29T22:40:01.685Z,17.50
2022-11-29T22:42:28.942Z,18.33
2022-11-29T22:44:56.190Z,17.65
2022-11-29T22:47:23.483Z,17.17
2022-11-29T22:49:50.691Z,17.30
2022-11-29T22:52:17.994Z,17.60
2022-11-29T22:54:45.775Z,17.63
2022-11-29T22:57:13.330Z,18.85
2022-11-29T22:59:40.534Z,17.27
2022-11-29T23:02:07.886Z,17.95
2022-11-29T23:04:35.207Z,17.67
2022-11-29T23:07:02.685Z,18.40
2022-11-29T23:09:29.908Z,17.17
2022-11-29T23:11:57.251Z,17.42
2022-11-29T23:14:24.623Z,19.75
2022-11-29T23:16:52.074Z,16.63
2022-11-29T23:19:20.001Z,17.80
2022-11-29T23:21:47.428Z,18.25
2022-11-29T23:24:15.071Z,17.85
2022-11-29T23:26:44.859Z,18.55
2022-11-29T23:29:13.832Z,16.60
2022-11-29T23:31:41.215Z,17.25
2022-11-29T23:34:08.538Z,16.92
2022-11-29T23:36:35.925Z,16.45
2022-11-29T23:39:04.991Z,16.60
2022-11-29T23:41:32.917Z,15.97
2022-11-29T23:44:00.135Z,16.00
2022-11-29T23:46:27.423Z,16.05
2022-11-29T23:48:54.657Z,16.35
2022-11-29T23:51:21.930Z,16.33
2022-11-29T23:53:52.581Z,15.73
2022-11-29T23:56:19.983Z,15.50
2022-11-29T23:58:47.463Z,16.02
